sensor_id;sensor_type;location;lat;lon;timestamp;pressure;altitude;pressure_sealevel;temperature;humidity
27304;BME280;14791;52.392;13.092;2023-01-19T00:01:35;99840.84;;;4.38;48.16
27304;BME280;14791;52.392;13.092;2023-01-19T00:04:04;99837.31;;;4.38;48.13
27304;BME280;14791;52.392;13.092;2023-01-19T00:06:33;99849.14;;;4.39;48.19
27304;BME280;14791;52.392;13.092;2023-01-19T00:09:02;99846.88;;;4.40;48.24
27304;BME280;14791;52.392;13.092;2023-01-19T00:11:31;99848.13;;;4.42;48.21
27304;BME280;14791;52.392;13.092;2023-01-19T00:14:00;99845.42;;;4.43;48.18
27304;BME280;14791;52.392;13.092;2023-01-19T00:16:29;99848.51;;;4.43;48.14
27304;BME280;14791;52.392;13.092;2023-01-19T00:18:58;99847.97;;;4.45;48.05
27304;BME280;14791;52.392;13.092;2023-01-19T00:21:26;99851.50;;;4.45;48.09
27304;BME280;14791;52.392;13.092;2023-01-19T00:23:55;99852.81;;;4.45;48.03
27304;BME280;14791;52.392;13.092;2023-01-19T00:26:24;99859.80;;;4.46;47.93
27304;BME280;14791;52.392;13.092;2023-01-19T00:28:53;99863.39;;;4.45;47.86
27304;BME280;14791;52.392;13.092;2023-01-19T00:31:22;99862.45;;;4.46;47.78
27304;BME280;14791;52.392;13.092;2023-01-19T00:33:51;99862.45;;;4.46;47.75
27304;BME280;14791;52.392;13.092;2023-01-19T00:36:20;99867.36;;;4.45;47.70
27304;BME280;14791;52.392;13.092;2023-01-19T00:38:48;99868.27;;;4.44;47.64
27304;BME280;14791;52.392;13.092;2023-01-19T00:41:17;99875.42;;;4.42;47.59
27304;BME280;14791;52.392;13.092;2023-01-19T00:43:48;99875.52;;;4.41;47.59
27304;BME280;14791;52.392;13.092;2023-01-19T00:46:17;99873.01;;;4.38;47.66
27304;BME280;14791;52.392;13.092;2023-01-19T00:48:46;99875.34;;;4.35;47.80
27304;BME280;14791;52.392;13.092;2023-01-19T00:51:15;99878.52;;;4.33;47.92
27304;BME280;14791;52.392;13.092;2023-01-19T00:53:43;99879.53;;;4.31;47.99
27304;BME280;14791;52.392;13.092;2023-01-19T00:56:12;99881.33;;;4.30;48.02
27304;BME280;14791;52.392;13.092;2023-01-19T00:58:41;99873.02;;;4.29;48.03
27304;BME280;14791;52.392;13.092;2023-01-19T01:01:11;99877.52;;;4.27;48.06
27304;BME280;14791;52.392;13.092;2023-01-19T01:03:40;99874.88;;;4.27;48.06
27304;BME280;14791;52.392;13.092;2023-01-19T01:06:09;99879.37;;;4.25;48.02
27304;BME280;14791;52.392;13.092;2023-01-19T01:08:38;99879.37;;;4.25;48.01
27304;BME280;14791;52.392;13.092;2023-01-19T01:11:07;99879.00;;;4.24;47.99
27304;BME280;14791;52.392;13.092;2023-01-19T01:13:36;99882.19;;;4.22;47.98
27304;BME280;14791;52.392;13.092;2023-01-19T01:16:06;99880.92;;;4.20;48.02
27304;BME280;14791;52.392;13.092;2023-01-19T01:18:36;99876.11;;;4.20;48.03
27304;BME280;14791;52.392;13.092;2023-01-19T01:21:11;99877.02;;;4.19;48.04
27304;BME280;14791;52.392;13.092;2023-01-19T01:23:37;99886.75;;;4.18;48.06
27304;BME280;14791;52.392;13.092;2023-01-19T01:26:06;99892.56;;;4.16;48.07
27304;BME280;14791;52.392;13.092;2023-01-19T01:28:35;99898.42;;;4.14;48.02
27304;BME280;14791;52.392;13.092;2023-01-19T01:31:04;99893.67;;;4.12;47.94
27304;BME280;14791;52.392;13.092;2023-01-19T01:33:33;99891.94;;;4.11;47.96
27304;BME280;14791;52.392;13.092;2023-01-19T01:36:02;99902.61;;;4.10;47.93
27304;BME280;14791;52.392;13.092;2023-01-19T01:38:31;99896.53;;;4.08;47.89
27304;BME280;14791;52.392;13.092;2023-01-19T01:41:00;99898.77;;;4.07;47.93
27304;BME280;14791;52.392;13.092;2023-01-19T01:43:51;99899.30;;;4.04;47.95
27304;BME280;14791;52.392;13.092;2023-01-19T01:46:22;99902.09;;;4.01;47.97
27304;BME280;14791;52.392;13.092;2023-01-19T01:51:45;99897.24;;;3.92;48.17
27304;BME280;14791;52.392;13.092;2023-01-19T01:54:25;99893.91;;;3.89;48.30
27304;BME280;14791;52.392;13.092;2023-01-19T01:56:57;99900.58;;;3.87;48.36
27304;BME280;14791;52.392;13.092;2023-01-19T01:59:32;99898.47;;;3.85;48.41
27304;BME280;14791;52.392;13.092;2023-01-19T02:02:15;99904.63;;;3.86;48.40
27304;BME280;14791;52.392;13.092;2023-01-19T02:05:05;99897.14;;;3.85;48.37
27304;BME280;14791;52.392;13.092;2023-01-19T02:10:33;99912.83;;;3.79;48.28
27304;BME280;14791;52.392;13.092;2023-01-19T02:13:20;99911.34;;;3.74;48.26
27304;BME280;14791;52.392;13.092;2023-01-19T02:15:56;99913.19;;;3.72;48.18
27304;BME280;14791;52.392;13.092;2023-01-19T02:18:27;99908.38;;;3.71;48.15
27304;BME280;14791;52.392;13.092;2023-01-19T02:21:07;99910.14;;;3.71;48.16
27304;BME280;14791;52.392;13.092;2023-01-19T02:23:46;99905.80;;;3.70;48.18
27304;BME280;14791;52.392;13.092;2023-01-19T02:26:38;99896.70;;;3.67;48.20
27304;BME280;14791;52.392;13.092;2023-01-19T02:29:02;99898.62;;;3.63;48.27
27304;BME280;14791;52.392;13.092;2023-01-19T02:31:33;99903.52;;;3.62;48.33
27304;BME280;14791;52.392;13.092;2023-01-19T02:34:05;99891.31;;;3.59;48.37
27304;BME280;14791;52.392;13.092;2023-01-19T02:36:55;99890.38;;;3.60;48.38
27304;BME280;14791;52.392;13.092;2023-01-19T02:39:36;99884.72;;;3.59;48.36
27304;BME280;14791;52.392;13.092;2023-01-19T02:42:08;99884.45;;;3.55;48.42
27304;BME280;14791;52.392;13.092;2023-01-19T02:44:38;99889.89;;;3.52;48.51
27304;BME280;14791;52.392;13.092;2023-01-19T02:47:08;99886.84;;;3.51;48.56
27304;BME280;14791;52.392;13.092;2023-01-19T02:49:37;99888.16;;;3.51;48.55
27304;BME280;14791;52.392;13.092;2023-01-19T02:52:12;99892.12;;;3.51;48.55
27304;BME280;14791;52.392;13.092;2023-01-19T02:57:51;99893.05;;;3.50;48.56
27304;BME280;14791;52.392;13.092;2023-01-19T03:03:31;99903.65;;;3.40;48.60
27304;BME280;14791;52.392;13.092;2023-01-19T03:06:02;99904.38;;;3.33;48.68
27304;BME280;14791;52.392;13.092;2023-01-19T03:09:02;99900.63;;;3.29;48.69
27304;BME280;14791;52.392;13.092;2023-01-19T03:11:33;99890.07;;;3.29;48.68
27304;BME280;14791;52.392;13.092;2023-01-19T03:14:09;99900.89;;;3.23;48.72
27304;BME280;14791;52.392;13.092;2023-01-19T03:16:55;99900.42;;;3.23;48.66
27304;BME280;14791;52.392;13.092;2023-01-19T03:19:37;99905.32;;;3.22;48.63
27304;BME280;14791;52.392;13.092;2023-01-19T03:22:13;99905.38;;;3.20;48.63
27304;BME280;14791;52.392;13.092;2023-01-19T03:24:44;99903.67;;;3.19;48.63
27304;BME280;14791;52.392;13.092;2023-01-19T03:27:16;99899.86;;;3.16;48.66
27304;BME280;14791;52.392;13.092;2023-01-19T03:29:54;99900.71;;;3.17;48.65
27304;BME280;14791;52.392;13.092;2023-01-19T03:32:20;99902.87;;;3.17;48.66
27304;BME280;14791;52.392;13.092;2023-01-19T03:34:51;99909.48;;;3.17;48.60
27304;BME280;14791;52.392;13.092;2023-01-19T03:37:22;99901.09;;;3.18;48.60
27304;BME280;14791;52.392;13.092;2023-01-19T03:39:52;99901.56;;;3.17;48.61
27304;BME280;14791;52.392;13.092;2023-01-19T03:42:23;99896.28;;;3.17;48.62
27304;BME280;14791;52.392;13.092;2023-01-19T03:44:54;99899.86;;;3.16;48.61
27304;BME280;14791;52.392;13.092;2023-01-19T03:47:24;99898.55;;;3.16;48.63
27304;BME280;14791;52.392;13.092;2023-01-19T03:49:55;99905.14;;;3.16;48.69
27304;BME280;14791;52.392;13.092;2023-01-19T03:52:27;99904.25;;;3.16;48.73
27304;BME280;14791;52.392;13.092;2023-01-19T03:55:00;99903.41;;;3.15;48.77
27304;BME280;14791;52.392;13.092;2023-01-19T03:57:30;99903.41;;;3.15;48.80
27304;BME280;14791;52.392;13.092;2023-01-19T03:59:59;99900.23;;;3.17;48.79
27304;BME280;14791;52.392;13.092;2023-01-19T04:02:30;99900.71;;;3.17;48.77
27304;BME280;14791;52.392;13.092;2023-01-19T04:04:59;99909.48;;;3.17;48.81
27304;BME280;14791;52.392;13.092;2023-01-19T04:07:28;99909.01;;;3.18;48.81
27304;BME280;14791;52.392;13.092;2023-01-19T04:09:57;99906.69;;;3.20;48.79
27304;BME280;14791;52.392;13.092;2023-01-19T04:12:25;99910.13;;;3.23;48.71
27304;BME280;14791;52.392;13.092;2023-01-19T04:14:54;99915.41;;;3.23;48.59
27304;BME280;14791;52.392;13.092;2023-01-19T04:17:23;99904.84;;;3.23;48.57
27304;BME280;14791;52.392;13.092;2023-01-19T04:19:52;99910.21;;;3.21;48.56
27304;BME280;14791;52.392;13.092;2023-01-19T04:22:21;99916.72;;;3.23;48.46
27304;BME280;14791;52.392;13.092;2023-01-19T04:24:50;99916.72;;;3.23;48.36
27304;BME280;14791;52.392;13.092;2023-01-19T04:27:19;99920.83;;;3.19;48.34
27304;BME280;14791;52.392;13.092;2023-01-19T04:29:47;99917.39;;;3.17;48.35
27304;BME280;14791;52.392;13.092;2023-01-19T04:32:17;99923.66;;;3.15;48.36
27304;BME280;14791;52.392;13.092;2023-01-19T04:34:46;99922.41;;;3.13;48.43
27304;BME280;14791;52.392;13.092;2023-01-19T04:37:15;99919.85;;;3.12;48.47
27304;BME280;14791;52.392;13.092;2023-01-19T04:39:44;99921.23;;;3.10;48.48
27304;BME280;14791;52.392;13.092;2023-01-19T04:42:13;99920.44;;;3.08;48.51
27304;BME280;14791;52.392;13.092;2023-01-19T04:44:42;99912.14;;;3.07;48.53
27304;BME280;14791;52.392;13.092;2023-01-19T04:47:11;99920.52;;;3.07;48.57
27304;BME280;14791;52.392;13.092;2023-01-19T04:49:40;99916.23;;;3.04;48.56
27304;BME280;14791;52.392;13.092;2023-01-19T04:52:09;99918.08;;;3.02;48.59
27304;BME280;14791;52.392;13.092;2023-01-19T04:54:37;99917.28;;;3.00;48.63
27304;BME280;14791;52.392;13.092;2023-01-19T04:57:06;99918.28;;;2.97;48.63
27304;BME280;14791;52.392;13.092;2023-01-19T04:59:35;99917.42;;;2.97;48.66
27304;BME280;14791;52.392;13.092;2023-01-19T05:02:04;99914.38;;;2.96;48.70
27304;BME280;14791;52.392;13.092;2023-01-19T05:04:33;99917.86;;;2.96;48.69
27304;BME280;14791;52.392;13.092;2023-01-19T05:07:02;99918.80;;;2.95;48.69
27304;BME280;14791;52.392;13.092;2023-01-19T05:09:30;99920.17;;;2.94;48.65
27304;BME280;14791;52.392;13.092;2023-01-19T05:11:59;99919.33;;;2.93;48.64
27304;BME280;14791;52.392;13.092;2023-01-19T05:14:28;99920.26;;;2.92;48.64
27304;BME280;14791;52.392;13.092;2023-01-19T05:16:58;99922.90;;;2.92;48.69
27304;BME280;14791;52.392;13.092;2023-01-19T05:19:27;99921.63;;;2.91;48.70
27304;BME280;14791;52.392;13.092;2023-01-19T05:21:56;99923.80;;;2.91;48.71
27304;BME280;14791;52.392;13.092;2023-01-19T05:24:25;99914.19;;;2.90;48.71
27304;BME280;14791;52.392;13.092;2023-01-19T05:26:54;99925.21;;;2.90;48.70
27304;BME280;14791;52.392;13.092;2023-01-19T05:29:23;99924.73;;;2.90;48.64
27304;BME280;14791;52.392;13.092;2023-01-19T05:31:52;99930.48;;;2.90;48.66
27304;BME280;14791;52.392;13.092;2023-01-19T05:34:21;99936.66;;;2.89;48.67
27304;BME280;14791;52.392;13.092;2023-01-19T05:36:50;99936.66;;;2.89;48.67
27304;BME280;14791;52.392;13.092;2023-01-19T05:39:19;99940.09;;;2.91;48.69
27304;BME280;14791;52.392;13.092;2023-01-19T05:41:47;99936.14;;;2.91;48.66
27304;BME280;14791;52.392;13.092;2023-01-19T05:44:16;99937.93;;;2.90;48.62
27304;BME280;14791;52.392;13.092;2023-01-19T05:46:45;99932.70;;;2.89;48.61
27304;BME280;14791;52.392;13.092;2023-01-19T05:49:14;99935.77;;;2.90;48.57
27304;BME280;14791;52.392;13.092;2023-01-19T05:51:43;99941.42;;;2.91;48.47
27304;BME280;14791;52.392;13.092;2023-01-19T05:54:13;99936.66;;;2.89;48.44
27304;BME280;14791;52.392;13.092;2023-01-19T05:56:43;99942.36;;;2.90;48.47
27304;BME280;14791;52.392;13.092;2023-01-19T05:59:11;99950.79;;;2.88;48.54
27304;BME280;14791;52.392;13.092;2023-01-19T06:01:42;99946.42;;;2.87;48.53
27304;BME280;14791;52.392;13.092;2023-01-19T06:04:10;99948.26;;;2.85;48.60
27304;BME280;14791;52.392;13.092;2023-01-19T06:06:39;99951.83;;;2.84;48.72
27304;BME280;14791;52.392;13.092;2023-01-19T06:09:09;99952.77;;;2.83;48.79
27304;BME280;14791;52.392;13.092;2023-01-19T06:11:38;99956.26;;;2.83;48.83
27304;BME280;14791;52.392;13.092;2023-01-19T06:14:08;99966.80;;;2.83;48.85
27304;BME280;14791;52.392;13.092;2023-01-19T06:16:37;99974.20;;;2.85;48.84
27304;BME280;14791;52.392;13.092;2023-01-19T06:19:06;99967.14;;;2.86;48.86
27304;BME280;14791;52.392;13.092;2023-01-19T06:21:35;99963.56;;;2.87;48.86
27304;BME280;14791;52.392;13.092;2023-01-19T06:24:05;99960.02;;;2.88;48.87
27304;BME280;14791;52.392;13.092;2023-01-19T06:26:34;99967.47;;;2.88;48.86
27304;BME280;14791;52.392;13.092;2023-01-19T06:29:04;99965.67;;;2.89;48.85
27304;BME280;14791;52.392;13.092;2023-01-19T06:31:33;99968.73;;;2.90;48.85
27304;BME280;14791;52.392;13.092;2023-01-19T06:34:02;99966.42;;;2.92;48.84
27304;BME280;14791;52.392;13.092;2023-01-19T06:36:31;99972.94;;;2.94;48.80
27304;BME280;14791;52.392;13.092;2023-01-19T06:38:59;99967.14;;;2.96;48.80
27304;BME280;14791;52.392;13.092;2023-01-19T06:41:33;99970.24;;;2.95;48.78
27304;BME280;14791;52.392;13.092;2023-01-19T06:44:03;99972.83;;;2.97;48.73
27304;BME280;14791;52.392;13.092;2023-01-19T06:46:32;99977.64;;;2.97;48.74
27304;BME280;14791;52.392;13.092;2023-01-19T06:49:02;99976.31;;;2.97;48.75
27304;BME280;14791;52.392;13.092;2023-01-19T06:51:31;99976.78;;;2.97;48.75
27304;BME280;14791;52.392;13.092;2023-01-19T06:54:00;99979.42;;;2.97;48.68
27304;BME280;14791;52.392;13.092;2023-01-19T06:56:29;99982.97;;;2.96;48.72
27304;BME280;14791;52.392;13.092;2023-01-19T06:58:58;99981.64;;;2.96;48.72
27304;BME280;14791;52.392;13.092;2023-01-19T07:01:27;99986.02;;;2.97;48.76
27304;BME280;14791;52.392;13.092;2023-01-19T07:03:55;99982.45;;;2.98;48.74
27304;BME280;14791;52.392;13.092;2023-01-19T07:06:24;99982.06;;;2.97;48.74
27304;BME280;14791;52.392;13.092;2023-01-19T07:08:54;99987.72;;;2.98;48.76
27304;BME280;14791;52.392;13.092;2023-01-19T07:11:23;99989.89;;;2.98;48.75
27304;BME280;14791;52.392;13.092;2023-01-19T07:13:53;99993.00;;;2.98;48.78
27304;BME280;14791;52.392;13.092;2023-01-19T07:16:22;99989.04;;;2.98;48.82
27304;BME280;14791;52.392;13.092;2023-01-19T07:18:52;99987.72;;;2.98;48.81
27304;BME280;14791;52.392;13.092;2023-01-19T07:21:21;99998.22;;;3.00;48.83
27304;BME280;14791;52.392;13.092;2023-01-19T07:23:51;100002.09;;;3.01;48.86
27304;BME280;14791;52.392;13.092;2023-01-19T07:26:20;99997.61;;;3.03;48.86
27304;BME280;14791;52.392;13.092;2023-01-19T07:28:51;99998.80;;;3.06;48.89
27304;BME280;14791;52.392;13.092;2023-01-19T07:31:20;100008.44;;;3.07;48.93
27304;BME280;14791;52.392;13.092;2023-01-19T07:33:49;100001.33;;;3.09;48.95
27304;BME280;14791;52.392;13.092;2023-01-19T07:36:18;100010.89;;;3.12;48.92
27304;BME280;14791;52.392;13.092;2023-01-19T07:38:47;100010.75;;;3.15;48.91
27304;BME280;14791;52.392;13.092;2023-01-19T07:41:16;100010.17;;;3.18;48.85
27304;BME280;14791;52.392;13.092;2023-01-19T07:43:45;100017.02;;;3.23;48.83
27304;BME280;14791;52.392;13.092;2023-01-19T07:46:14;100013.00;;;3.24;48.86
27304;BME280;14791;52.392;13.092;2023-01-19T07:48:43;100015.97;;;3.27;48.93
27304;BME280;14791;52.392;13.092;2023-01-19T07:51:11;100018.88;;;3.31;48.96
27304;BME280;14791;52.392;13.092;2023-01-19T07:53:42;100024.02;;;3.34;48.96
27304;BME280;14791;52.392;13.092;2023-01-19T07:56:12;100022.17;;;3.36;48.99
27304;BME280;14791;52.392;13.092;2023-01-19T07:58:41;100023.30;;;3.40;49.03
27304;BME280;14791;52.392;13.092;2023-01-19T08:01:12;100025.80;;;3.44;49.00
27304;BME280;14791;52.392;13.092;2023-01-19T08:03:41;100027.86;;;3.47;48.97
27304;BME280;14791;52.392;13.092;2023-01-19T08:06:25;100024.98;;;3.52;48.96
27304;BME280;14791;52.392;13.092;2023-01-19T08:08:48;100024.78;;;3.56;48.96
27304;BME280;14791;52.392;13.092;2023-01-19T08:11:17;100033.92;;;3.59;49.00
27304;BME280;14791;52.392;13.092;2023-01-19T08:13:46;100023.59;;;3.63;49.00
27304;BME280;14791;52.392;13.092;2023-01-19T08:16:15;100033.48;;;3.69;49.05
27304;BME280;14791;52.392;13.092;2023-01-19T08:18:44;100037.66;;;3.74;49.11
27304;BME280;14791;52.392;13.092;2023-01-19T08:21:12;100035.72;;;3.78;49.13
27304;BME280;14791;52.392;13.092;2023-01-19T08:23:41;100043.77;;;3.85;49.16
27304;BME280;14791;52.392;13.092;2023-01-19T08:26:24;100039.92;;;3.92;49.18
27304;BME280;14791;52.392;13.092;2023-01-19T08:28:53;100039.66;;;3.98;49.20
27304;BME280;14791;52.392;13.092;2023-01-19T08:31:22;100049.61;;;4.02;49.26
27304;BME280;14791;52.392;13.092;2023-01-19T08:33:51;100055.48;;;4.09;49.29
27304;BME280;14791;52.392;13.092;2023-01-19T08:36:21;100049.40;;;4.17;49.28
27304;BME280;14791;52.392;13.092;2023-01-19T08:38:51;100055.23;;;4.23;49.29
27304;BME280;14791;52.392;13.092;2023-01-19T08:41:20;100056.22;;;4.31;49.26
27304;BME280;14791;52.392;13.092;2023-01-19T08:43:49;100056.33;;;4.38;49.18
27304;BME280;14791;52.392;13.092;2023-01-19T08:46:18;100051.27;;;4.42;49.13
27304;BME280;14791;52.392;13.092;2023-01-19T08:48:48;100045.30;;;4.47;49.10
27304;BME280;14791;52.392;13.092;2023-01-19T08:51:18;100042.38;;;4.54;49.13
27304;BME280;14791;52.392;13.092;2023-01-19T08:53:47;100049.23;;;4.58;49.07
27304;BME280;14791;52.392;13.092;2023-01-19T08:56:17;100051.57;;;4.64;49.04
27304;BME280;14791;52.392;13.092;2023-01-19T08:58:46;100052.20;;;4.69;49.04
27304;BME280;14791;52.392;13.092;2023-01-19T09:01:15;100055.52;;;4.74;49.04
27304;BME280;14791;52.392;13.092;2023-01-19T09:03:45;100060.11;;;4.79;48.96
27304;BME280;14791;52.392;13.092;2023-01-19T09:06:15;100054.13;;;4.84;48.92
27304;BME280;14791;52.392;13.092;2023-01-19T09:08:46;100059.20;;;4.89;48.96
27304;BME280;14791;52.392;13.092;2023-01-19T09:11:15;100058.09;;;4.93;48.95
27304;BME280;14791;52.392;13.092;2023-01-19T09:13:45;100071.98;;;4.98;48.96
27304;BME280;14791;52.392;13.092;2023-01-19T09:16:14;100059.44;;;5.02;48.93
27304;BME280;14791;52.392;13.092;2023-01-19T09:18:43;100060.91;;;5.07;48.97
27304;BME280;14791;52.392;13.092;2023-01-19T09:21:13;100070.05;;;5.10;48.92
27304;BME280;14791;52.392;13.092;2023-01-19T09:23:41;100063.20;;;5.15;48.91
27304;BME280;14791;52.392;13.092;2023-01-19T09:26:11;100070.45;;;5.20;48.81
27304;BME280;14791;52.392;13.092;2023-01-19T09:28:40;100061.97;;;5.22;48.71
27304;BME280;14791;52.392;13.092;2023-01-19T09:31:09;100068.05;;;5.24;48.70
27304;BME280;14791;52.392;13.092;2023-01-19T09:33:38;100064.08;;;5.24;48.72
27304;BME280;14791;52.392;13.092;2023-01-19T09:36:07;100064.38;;;5.27;48.71
27304;BME280;14791;52.392;13.092;2023-01-19T09:38:37;100059.09;;;5.27;48.70
27304;BME280;14791;52.392;13.092;2023-01-19T09:41:18;100062.96;;;5.28;48.76
27304;BME280;14791;52.392;13.092;2023-01-19T09:43:55;100058.08;;;5.29;48.77
27304;BME280;14791;52.392;13.092;2023-01-19T09:46:21;100058.14;;;5.28;48.81
27304;BME280;14791;52.392;13.092;2023-01-19T09:48:52;100058.92;;;5.30;48.87
27304;BME280;14791;52.392;13.092;2023-01-19T09:51:26;100065.00;;;5.32;48.87
27304;BME280;14791;52.392;13.092;2023-01-19T09:54:09;100060.39;;;5.36;48.88
27304;BME280;14791;52.392;13.092;2023-01-19T09:56:36;100061.02;;;5.41;48.88
27304;BME280;14791;52.392;13.092;2023-01-19T09:59:25;100060.63;;;5.40;48.97
27304;BME280;14791;52.392;13.092;2023-01-19T10:02:06;100067.87;;;5.45;49.01
27304;BME280;14791;52.392;13.092;2023-01-19T10:04:40;100062.95;;;5.46;49.06
27304;BME280;14791;52.392;13.092;2023-01-19T10:07:17;100063.60;;;5.51;49.06
27304;BME280;14791;52.392;13.092;2023-01-19T10:10:04;100058.92;;;5.56;48.98
27304;BME280;14791;52.392;13.092;2023-01-19T10:12:45;100061.70;;;5.62;48.94
27304;BME280;14791;52.392;13.092;2023-01-19T10:18:16;100056.17;;;5.66;48.96
27304;BME280;14791;52.392;13.092;2023-01-19T10:20:52;100048.46;;;5.70;48.87
27304;BME280;14791;52.392;13.092;2023-01-19T10:23:33;100048.84;;;5.71;48.88
27304;BME280;14791;52.392;13.092;2023-01-19T10:26:02;100046.90;;;5.75;48.86
27304;BME280;14791;52.392;13.092;2023-01-19T10:28:31;100045.88;;;5.78;48.88
27304;BME280;14791;52.392;13.092;2023-01-19T10:31:01;100043.06;;;5.81;48.83
27304;BME280;14791;52.392;13.092;2023-01-19T10:33:33;100051.62;;;5.86;48.87
27304;BME280;14791;52.392;13.092;2023-01-19T10:36:18;100044.75;;;5.90;48.86
27304;BME280;14791;52.392;13.092;2023-01-19T10:38:36;100044.06;;;5.95;48.82
27304;BME280;14791;52.392;13.092;2023-01-19T10:41:10;100042.89;;;6.01;48.83
27304;BME280;14791;52.392;13.092;2023-01-19T10:43:40;100049.66;;;6.07;48.77
27304;BME280;14791;52.392;13.092;2023-01-19T10:47:04;100041.45;;;6.11;48.67
27304;BME280;14791;52.392;13.092;2023-01-19T10:48:54;100044.88;;;6.13;48.69
27304;BME280;14791;52.392;13.092;2023-01-19T10:51:23;100039.10;;;6.14;48.80
27304;BME280;14791;52.392;13.092;2023-01-19T10:56:34;100035.10;;;6.23;48.65
27304;BME280;14791;52.392;13.092;2023-01-19T10:59:01;100028.30;;;6.26;48.63
27304;BME280;14791;52.392;13.092;2023-01-19T11:01:31;100024.22;;;6.27;48.60
27304;BME280;14791;52.392;13.092;2023-01-19T11:04:20;100034.57;;;6.32;48.55
27304;BME280;14791;52.392;13.092;2023-01-19T11:06:48;100020.76;;;6.34;48.55
27304;BME280;14791;52.392;13.092;2023-01-19T11:09:19;100022.09;;;6.34;48.62
27304;BME280;14791;52.392;13.092;2023-01-19T11:11:50;100018.81;;;6.37;48.61
27304;BME280;14791;52.392;13.092;2023-01-19T11:14:22;100021.20;;;6.42;48.61
27304;BME280;14791;52.392;13.092;2023-01-19T11:16:53;100014.39;;;6.45;48.62
27304;BME280;14791;52.392;13.092;2023-01-19T11:19:31;100015.47;;;6.50;48.58
27304;BME280;14791;52.392;13.092;2023-01-19T11:22:15;100021.44;;;6.53;48.57
27304;BME280;14791;52.392;13.092;2023-01-19T11:24:51;100019.48;;;6.57;48.61
27304;BME280;14791;52.392;13.092;2023-01-19T11:27:21;100022.14;;;6.57;48.68
27304;BME280;14791;52.392;13.092;2023-01-19T11:30:05;100017.72;;;6.65;48.64
27304;BME280;14791;52.392;13.092;2023-01-19T11:32:36;100013.41;;;6.71;48.56
27304;BME280;14791;52.392;13.092;2023-01-19T11:35:34;100015.88;;;6.74;48.47
27304;BME280;14791;52.392;13.092;2023-01-19T11:38:19;100004.52;;;6.79;48.41
27304;BME280;14791;52.392;13.092;2023-01-19T11:40:56;99998.84;;;6.78;48.51
27304;BME280;14791;52.392;13.092;2023-01-19T11:43:29;100003.00;;;6.82;48.61
27304;BME280;14791;52.392;13.092;2023-01-19T11:45:58;99998.60;;;6.90;48.51
27304;BME280;14791;52.392;13.092;2023-01-19T11:48:36;99991.52;;;6.97;48.44
27304;BME280;14791;52.392;13.092;2023-01-19T11:51:10;99993.71;;;7.05;48.38
27304;BME280;14791;52.392;13.092;2023-01-19T11:53:37;99988.90;;;7.12;48.35
27304;BME280;14791;52.392;13.092;2023-01-19T11:56:12;99989.28;;;7.20;48.30
27304;BME280;14791;52.392;13.092;2023-01-19T11:58:43;99984.84;;;7.28;48.27
27304;BME280;14791;52.392;13.092;2023-01-19T12:01:31;99992.38;;;7.35;48.23
27304;BME280;14791;52.392;13.092;2023-01-19T12:04:10;99990.66;;;7.41;48.20
27304;BME280;14791;52.392;13.092;2023-01-19T12:06:43;99984.59;;;7.46;48.18
27304;BME280;14791;52.392;13.092;2023-01-19T12:09:40;99988.58;;;7.54;48.12
27304;BME280;14791;52.392;13.092;2023-01-19T12:12:06;99992.20;;;7.60;47.92
27304;BME280;14791;52.392;13.092;2023-01-19T12:14:56;99992.97;;;7.62;47.85
27304;BME280;14791;52.392;13.092;2023-01-19T12:17:46;99994.95;;;7.65;47.72
27304;BME280;14791;52.392;13.092;2023-01-19T12:20:42;100001.52;;;7.67;47.67
27304;BME280;14791;52.392;13.092;2023-01-19T12:23:16;100005.11;;;7.66;47.62
27304;BME280;14791;52.392;13.092;2023-01-19T12:28:33;100001.03;;;7.67;47.70
27304;BME280;14791;52.392;13.092;2023-01-19T12:31:03;100004.94;;;7.69;47.80
27304;BME280;14791;52.392;13.092;2023-01-19T12:33:39;99991.25;;;7.75;47.71
27304;BME280;14791;52.392;13.092;2023-01-19T12:41:25;99999.42;;;7.94;47.50
27304;BME280;14791;52.392;13.092;2023-01-19T12:46:51;99995.44;;;8.01;47.36
27304;BME280;14791;52.392;13.092;2023-01-19T12:54:59;100008.92;;;8.05;47.24
27304;BME280;14791;52.392;13.092;2023-01-19T12:57:55;100006.27;;;8.05;47.32
27304;BME280;14791;52.392;13.092;2023-01-19T13:00:27;100010.42;;;8.09;47.35
27304;BME280;14791;52.392;13.092;2023-01-19T13:05:54;100012.14;;;8.17;47.33
27304;BME280;14791;52.392;13.092;2023-01-19T13:08:54;100015.36;;;8.22;47.39
27304;BME280;14791;52.392;13.092;2023-01-19T13:13:37;100020.09;;;8.53;47.39
27304;BME280;14791;52.392;13.092;2023-01-19T13:18:57;100019.13;;;9.08;46.62
27304;BME280;14791;52.392;13.092;2023-01-19T13:21:29;100023.34;;;9.38;46.40
27304;BME280;14791;52.392;13.092;2023-01-19T13:24:03;100025.82;;;9.67;46.28
27304;BME280;14791;52.392;13.092;2023-01-19T13:26:35;100033.61;;;9.95;46.05
27304;BME280;14791;52.392;13.092;2023-01-19T13:31:49;100024.14;;;10.35;45.33
27304;BME280;14791;52.392;13.092;2023-01-19T13:34:22;100021.40;;;10.42;45.09
27304;BME280;14791;52.392;13.092;2023-01-19T13:36:54;100029.92;;;10.48;45.10
27304;BME280;14791;52.392;13.092;2023-01-19T13:39:42;100025.10;;;10.53;45.02
27304;BME280;14791;52.392;13.092;2023-01-19T13:42:22;100029.27;;;10.57;44.99
27304;BME280;14791;52.392;13.092;2023-01-19T13:44:51;100031.19;;;10.55;44.84
27304;BME280;14791;52.392;13.092;2023-01-19T13:47:24;100036.24;;;10.47;44.62
27304;BME280;14791;52.392;13.092;2023-01-19T13:49:55;100047.19;;;10.36;44.51
27304;BME280;14791;52.392;13.092;2023-01-19T13:52:29;100046.22;;;10.25;44.61
27304;BME280;14791;52.392;13.092;2023-01-19T13:55:00;100044.33;;;10.14;44.47
27304;BME280;14791;52.392;13.092;2023-01-19T13:57:40;100046.27;;;9.99;44.51
27304;BME280;14791;52.392;13.092;2023-01-19T14:03:15;100051.10;;;9.74;44.87
27304;BME280;14791;52.392;13.092;2023-01-19T14:05:43;100052.70;;;9.64;44.97
27304;BME280;14791;52.392;13.092;2023-01-19T14:08:14;100057.55;;;9.51;45.19